»·PEaware :: SKY412 S59-KSZT

SKY412 :: S59-KSZT

FLIGHT INFORMATION

Flight Status: Arrived
Operator:
Sky High Charters
More flights by this operator :: More flights under this callsign
Pilot: Matthew M. (8235)
Aircraft: Unknown
(DA62)
More flights by this aircraft type
Origin: S59 Libby
United States
Destination: KSZT Sandpoint
United States
More flights between these airports :: More routes between these airports
Route: +EYESE1 EYESE V448 CLASS
File this flight plan on PilotEdge
Remarks: Scenario 6 (Pt. 1)
Altitude:
(Current/Filed)
12,000ft
Speed:
(Current/Filed)
160kts
Departed: 03-Dec-19 04:32 PM
Arrived: 03-Dec-19 05:26 PM
Distance/Time
Traveled:
43nm/0:54
Distance/Time
To Go:
Arrived

Flight Plot

Page will automatically refresh every two minutes.

Flight plan parsing failed; only flown route is shown


Map Options




Map Legend


Flown Route
Filed Route
Departure Airport
Arrival Airport
Navaid (VOR, NDB)
Fix

Horizontal Profiles

Position Reports

Time Latitude Longitude Heading Altitude Ground
Speed
03-Dec-19 16:21 48.284296 -115.488867 254 2599ft 0kts
03-Dec-19 16:22 48.284296 -115.488867 254 2599ft 0kts
03-Dec-19 16:23 48.284296 -115.488867 254 2599ft 0kts
03-Dec-19 16:24 48.284296 -115.488867 254 2599ft 0kts
03-Dec-19 16:25 48.284294 -115.488874 254 2599ft 0kts
03-Dec-19 16:26 48.284294 -115.488874 254 2599ft 0kts
03-Dec-19 16:27 48.287782 -115.490537 345 2590ft 19kts
03-Dec-19 16:28 48.290600 -115.491915 266 2583ft 6kts
03-Dec-19 16:29 48.290309 -115.492793 159 2583ft 0kts
03-Dec-19 16:30 48.289599 -115.492489 163 2584ft 31kts
03-Dec-19 16:31 48.270979 -115.484977 163 2906ft 86kts
03-Dec-19 16:32 48.248667 -115.475729 164 3586ft 109kts
03-Dec-19 16:33 48.219626 -115.464213 166 4449ft 126kts
03-Dec-19 16:34 48.188848 -115.452551 166 5337ft 130kts
03-Dec-19 16:35 48.157292 -115.440900 169 6220ft 134kts
03-Dec-19 16:36 48.133023 -115.432365 169 6888ft 136kts
03-Dec-19 16:37 48.111910 -115.424362 169 7381ft 141kts
03-Dec-19 16:38 48.094543 -115.417009 168 7878ft 135kts
03-Dec-19 16:39 48.070403 -115.406105 170 8764ft 123kts
03-Dec-19 16:40 48.044493 -115.393632 169 9636ft 125kts
03-Dec-19 16:41 48.018805 -115.385750 180 10243ft 133kts
03-Dec-19 16:42 47.989813 -115.375065 151 10873ft 153kts
03-Dec-19 16:43 47.972966 -115.331830 121 11439ft 168kts
03-Dec-19 16:44 47.949415 -115.325379 241 11865ft 127kts
03-Dec-19 16:45 47.953163 -115.365099 283 11970ft 146kts
03-Dec-19 16:46 47.967760 -115.435731 283 11985ft 156kts
03-Dec-19 16:47 47.978385 -115.500053 258 12010ft 158kts
03-Dec-19 16:48 47.971297 -115.541704 255 11988ft 161kts
03-Dec-19 16:49 47.962117 -115.591656 255 11987ft 163kts
03-Dec-19 16:50 47.954620 -115.632121 255 11983ft 160kts
03-Dec-19 16:51 47.947264 -115.671752 255 11990ft 158kts
03-Dec-19 16:52 47.938553 -115.718594 255 11973ft 157kts
03-Dec-19 16:53 47.928478 -115.772622 255 11459ft 158kts
03-Dec-19 16:54 47.919976 -115.817544 255 10854ft 158kts
03-Dec-19 16:55 47.910264 -115.868772 256 10220ft 152kts
03-Dec-19 16:56 47.902566 -115.909863 257 10006ft 140kts
03-Dec-19 16:57 47.895690 -115.946275 257 10009ft 132kts
03-Dec-19 16:58 47.887944 -115.987162 257 10009ft 139kts
03-Dec-19 16:59 47.880310 -116.027531 257 10008ft 141kts
03-Dec-19 17:00 47.869932 -116.082417 257 10007ft 142kts
03-Dec-19 17:01 47.862335 -116.122526 257 10007ft 143kts
03-Dec-19 17:02 47.863262 -116.161002 286 9963ft 139kts
03-Dec-19 17:03 47.872988 -116.201356 289 9624ft 142kts
03-Dec-19 17:04 47.887887 -116.257050 290 8908ft 143kts
03-Dec-19 17:05 47.900336 -116.302515 289 8431ft 138kts
03-Dec-19 17:06 47.908407 -116.331980 289 8398ft 121kts
03-Dec-19 17:07 47.918631 -116.369552 288 8410ft 120kts
03-Dec-19 17:08 47.928307 -116.405123 289 8403ft 124kts
03-Dec-19 17:09 47.941418 -116.453266 289 8402ft 126kts
03-Dec-19 17:10 47.956637 -116.503388 297 8401ft 128kts
03-Dec-19 17:11 47.975888 -116.547705 298 8307ft 134kts
03-Dec-19 17:12 47.996350 -116.594239 298 7889ft 140kts
03-Dec-19 17:13 48.016598 -116.640360 298 7413ft 141kts
03-Dec-19 17:14 48.032468 -116.676597 298 7027ft 140kts
03-Dec-19 17:15 48.050850 -116.718578 298 6906ft 128kts
03-Dec-19 17:16 48.071545 -116.759757 335 6894ft 133kts
03-Dec-19 17:17 48.108853 -116.739999 24 6903ft 142kts
03-Dec-19 17:18 48.137315 -116.713590 26 6559ft 155kts
03-Dec-19 17:19 48.165485 -116.687040 27 5837ft 146kts
03-Dec-19 17:20 48.195786 -116.658428 26 5493ft 121kts
03-Dec-19 17:21 48.220033 -116.635556 28 4903ft 129kts
03-Dec-19 17:22 48.247053 -116.609851 29 3907ft 135kts
03-Dec-19 17:23 48.274491 -116.583959 31 2801ft 132kts
03-Dec-19 17:24 48.295056 -116.564353 30 2132ft 76kts
03-Dec-19 17:25 48.297347 -116.561226 212 2132ft 11kts
03-Dec-19 17:26 48.294926 -116.563147 317 2130ft 0kts
03-Dec-19 17:27 48.294926 -116.563147 317 2130ft 0kts

Navigation Log

Ident Type
Flight plan parsing failed, navigation log unavailable